Time;durP1;ratioP1;P1;durP2;ratioP2;P2;SDS_P1;SDS_P2;PMS_P1;PMS_P2;Temp;Humidity;BMP_temperature;BMP_pressure;BME280_temperature;BME280_humidity;BME280_pressure;Samples;Min_cycle;Max_cycle;Signal;HPM_P1;HPM_P2
2023/04/02 00:01:19;;;;;;;2.25;1.40;;;;;;;9.07;67.08;94179.97;4994487;28;20219;-69
2023/04/02 00:04:13;;;;;;;4.97;1.75;;;;;;;9.21;66.18;94186.09;4995368;28;20223;-66
2023/04/02 00:06:44;;;;;;;3.08;1.00;;;;;;;9.27;66.30;94177.41;4995229;28;20208;-69
2023/04/02 00:09:35;;;;;;;1.80;1.70;;;;;;;9.29;65.33;94183.25;4995927;28;20597;-68
2023/04/02 00:12:17;;;;;;;1.40;1.25;;;;;;;9.33;66.05;94179.69;4995075;28;20741;-68
2023/04/02 00:14:50;;;;;;;1.23;1.00;;;;;;;9.28;66.21;94173.16;4996343;28;20248;-66
2023/04/02 00:17:17;;;;;;;1.58;0.85;;;;;;;9.29;65.55;94180.72;4997710;28;20232;-69
2023/04/02 00:19:48;;;;;;;1.02;0.93;;;;;;;9.32;65.90;94169.63;4997765;28;20216;-70
2023/04/02 00:22:21;;;;;;;0.75;0.50;;;;;;;9.33;65.28;94166.19;4997670;28;20254;-68
2023/04/02 00:24:53;;;;;;;0.80;0.80;;;;;;;9.29;65.34;94175.63;4997381;28;20295;-69
2023/04/02 00:27:20;;;;;;;0.70;0.70;;;;;;;9.34;65.59;94167.84;4997850;28;20235;-69
2023/04/02 00:29:48;;;;;;;1.20;1.10;;;;;;;9.37;65.65;94162.63;4996607;28;20197;-70
2023/04/02 00:32:24;;;;;;;0.60;0.60;;;;;;;9.28;64.86;94163.84;4996007;28;20662;-68
2023/04/02 00:34:51;;;;;;;0.70;0.70;;;;;;;9.44;64.13;94154.69;4997918;28;20292;-69
2023/04/02 00:37:26;;;;;;;0.50;0.50;;;;;;;9.44;63.31;94159.75;4995627;28;20709;-71
2023/04/02 00:39:58;;;;;;;0.65;0.65;;;;;;;9.51;62.96;94155.25;4997688;28;20243;-70
2023/04/02 00:42:26;;;;;;;0.47;0.47;;;;;;;9.61;63.29;94158.22;4997951;28;20227;-71
2023/04/02 00:44:54;;;;;;;0.70;0.70;;;;;;;9.58;63.03;94166.78;4997512;28;20316;-69
2023/04/02 00:47:25;;;;;;;0.45;0.45;;;;;;;9.64;63.11;94160.63;4997165;28;20200;-72
2023/04/02 00:49:57;;;;;;;0.70;0.70;;;;;;;9.64;62.34;94170.75;4996608;28;20282;-66
2023/04/02 00:52:28;;;;;;;0.77;0.77;;;;;;;9.65;63.16;94170.66;4996272;28;20607;-68
2023/04/02 00:55:02;;;;;;;0.95;0.80;;;;;;;9.66;62.79;94163.88;4998330;28;20228;-69
2023/04/02 00:57:29;;;;;;;0.63;0.63;;;;;;;9.52;62.72;94162.78;4998325;28;20223;-69
2023/04/02 00:59:58;;;;;;;1.50;0.90;;;;;;;9.52;63.83;94162.78;4996794;28;20216;-71
2023/04/02 01:02:29;;;;;;;0.82;0.68;;;;;;;9.45;63.75;94166.47;4996698;28;20698;-68
2023/04/02 01:04:58;;;;;;;0.80;0.80;;;;;;;9.45;63.65;94161.41;4996968;28;20235;-72
2023/04/02 01:07:57;;;;;;;0.65;0.65;;;;;;;9.49;63.13;94170.53;4997722;28;20748;-71
2023/04/02 01:10:45;;;;;;;2.50;0.60;;;;;;;9.53;63.46;94164.44;4996297;28;20204;-71
2023/04/02 01:13:23;;;;;;;0.70;0.70;;;;;;;9.60;63.11;94169.25;4997400;28;20462;-67
2023/04/02 01:15:56;;;;;;;0.68;0.68;;;;;;;9.65;62.55;94164.81;4997380;28;20204;-70
2023/04/02 01:18:36;;;;;;;0.77;0.77;;;;;;;9.73;62.84;94163.53;4997008;28;21407;-72
2023/04/02 01:21:24;;;;;;;0.65;0.60;;;;;;;9.76;62.41;94165.13;4996019;28;21476;-70
2023/04/02 01:24:01;;;;;;;1.05;0.60;;;;;;;9.65;62.11;94172.41;4996451;28;20303;-71
2023/04/02 01:26:50;;;;;;;0.70;0.70;;;;;;;9.66;61.75;94174.03;4996714;28;20318;-72
2023/04/02 01:29:21;;;;;;;1.58;0.50;;;;;;;9.65;62.21;94177.47;4996774;28;20215;-71
2023/04/02 01:31:50;;;;;;;1.27;1.20;;;;;;;9.54;63.37;94181.28;5000985;28;20278;-66
2023/04/02 01:34:22;;;;;;;1.70;1.60;;;;;;;9.36;65.00;94181.28;4997911;28;20284;-70
2023/04/02 01:37:00;;;;;;;1.65;1.55;;;;;;;9.00;66.55;94179.38;4999774;28;22121;-67
2023/04/02 01:39:42;;;;;;;1.80;1.70;;;;;;;8.80;67.73;94182.75;4997778;28;20267;-70
2023/04/02 01:42:17;;;;;;;1.30;1.30;;;;;;;8.75;68.06;94191.41;4995317;28;20266;-69
2023/04/02 01:44:49;;;;;;;1.70;1.60;;;;;;;8.43;69.30;94187.63;4993441;28;20299;-70
2023/04/02 01:47:18;;;;;;;2.80;1.77;;;;;;;8.29;69.69;94189.84;4994386;28;20338;-71
2023/04/02 01:49:45;;;;;;;1.67;1.58;;;;;;;8.42;69.53;94183.44;4995966;28;20305;-69
2023/04/02 01:52:16;;;;;;;1.60;1.50;;;;;;;8.28;70.33;94183.13;4994170;28;20237;-71
2023/04/02 01:54:42;;;;;;;1.90;1.67;;;;;;;8.33;70.76;94183.81;4992998;28;20225;-68
2023/04/02 01:57:10;;;;;;;2.10;1.90;;;;;;;8.25;71.23;94178.19;4996968;28;20335;-70
2023/04/02 01:59:37;;;;;;;2.00;1.90;;;;;;;8.16;71.73;94179.38;4996676;28;20232;-68
2023/04/02 02:02:07;;;;;;;1.67;1.58;;;;;;;8.13;72.05;94175.25;4996354;28;20295;-68
2023/04/02 02:04:34;;;;;;;3.80;2.10;;;;;;;7.92;73.29;94163.41;4996570;28;20781;-70
2023/04/02 02:07:02;;;;;;;2.42;2.22;;;;;;;7.83;74.02;94176.41;4996448;28;20235;-69
2023/04/02 02:09:32;;;;;;;2.92;2.35;;;;;;;7.93;73.70;94172.63;4997374;28;20216;-67
2023/04/02 02:12:01;;;;;;;2.50;2.30;;;;;;;7.85;74.24;94177.19;4995041;28;20303;-69
2023/04/02 02:14:30;;;;;;;3.00;2.33;;;;;;;7.86;74.43;94176.31;4995981;28;20709;-68
2023/04/02 02:16:58;;;;;;;3.10;2.67;;;;;;;7.78;75.65;94168.16;4996488;28;20346;-69
2023/04/02 02:19:31;;;;;;;2.75;2.50;;;;;;;7.72;74.66;94178.50;4996142;28;20204;-69
2023/04/02 02:22:12;;;;;;;2.40;2.20;;;;;;;7.65;75.63;94177.09;4996633;28;20204;-70
2023/04/02 02:24:40;;;;;;;3.67;2.10;;;;;;;7.61;75.76;94175.56;4995865;28;20235;-69
2023/04/02 02:27:43;;;;;;;2.95;2.75;;;;;;;7.60;76.49;94176.44;4995978;28;20259;-69
2023/04/02 02:30:15;;;;;;;3.03;2.72;;;;;;;7.72;75.17;94173.44;4996981;28;20743;-69
2023/04/02 02:32:50;;;;;;;2.10;2.00;;;;;;;7.76;75.48;94177.50;4997472;28;20236;-69
2023/04/02 02:35:22;;;;;;;3.03;2.20;;;;;;;7.66;76.12;94168.63;4995712;28;20729;-68
2023/04/02 02:37:55;;;;;;;2.35;2.15;;;;;;;7.70;75.62;94185.31;4995724;28;20800;-68
2023/04/02 02:40:27;;;;;;;2.92;2.72;;;;;;;7.81;74.66;94183.22;4996431;28;20707;-68
2023/04/02 02:42:57;;;;;;;2.45;2.25;;;;;;;7.96;74.02;94172.53;4996352;28;20236;-70
2023/04/02 02:45:27;;;;;;;1.70;1.60;;;;;;;7.88;74.34;94161.88;4996747;28;20301;-70
2023/04/02 02:47:56;;;;;;;2.28;1.77;;;;;;;8.04;73.41;94165.47;4996721;28;20239;-67
2023/04/02 02:50:29;;;;;;;1.52;1.42;;;;;;;8.17;72.51;94166.66;4995568;28;20290;-69
2023/04/02 02:52:59;;;;;;;1.90;1.80;;;;;;;8.18;71.90;94168.28;4994835;28;20204;-68
2023/04/02 02:55:31;;;;;;;1.50;1.40;;;;;;;8.26;71.25;94169.72;4995266;28;20209;-70
2023/04/02 02:58:03;;;;;;;2.35;1.13;;;;;;;8.22;71.46;94170.72;4996873;28;20229;-70
2023/04/02 03:00:31;;;;;;;2.95;1.50;;;;;;;8.26;71.00;94164.66;4994992;28;20230;-69
2023/04/02 03:02:58;;;;;;;1.02;1.02;;;;;;;8.25;70.13;94168.88;4996926;28;20285;-71
2023/04/02 03:05:28;;;;;;;1.88;1.77;;;;;;;8.33;69.85;94176.22;4996675;28;20294;-69
2023/04/02 03:07:57;;;;;;;2.00;1.20;;;;;;;8.37;70.06;94167.63;4996112;28;20584;-66
2023/04/02 03:10:33;;;;;;;4.60;1.80;;;;;;;8.36;70.09;94176.94;4995948;28;20302;-72
2023/04/02 03:13:08;;;;;;;1.95;1.85;;;;;;;8.32;69.87;94170.34;4996621;28;20231;-71
2023/04/02 03:15:41;;;;;;;2.58;2.00;;;;;;;8.27;70.66;94179.78;4999816;28;20211;-68
2023/04/02 03:18:11;;;;;;;4.75;2.55;;;;;;;8.22;70.14;94183.38;4997768;28;20705;-69
2023/04/02 03:20:46;;;;;;;2.38;1.98;;;;;;;8.11;71.32;94187.16;4997102;28;20696;-72
2023/04/02 03:23:29;;;;;;;2.30;1.60;;;;;;;8.04;70.73;94183.19;4997600;28;20262;-69
2023/04/02 03:26:01;;;;;;;2.05;1.95;;;;;;;7.92;71.44;94181.09;4998561;28;20557;-69
2023/04/02 03:28:32;;;;;;;1.92;1.70;;;;;;;7.93;71.58;94182.75;4999618;28;20246;-70
2023/04/02 03:31:03;;;;;;;2.47;2.28;;;;;;;7.92;71.85;94178.56;4997303;28;20239;-65
2023/04/02 03:33:35;;;;;;;2.10;2.00;;;;;;;7.77;72.54;94184.22;4997645;28;20207;-73
2023/04/02 03:36:17;;;;;;;2.10;1.80;;;;;;;7.62;73.17;94172.16;4996072;28;20278;-71
2023/04/02 03:38:46;;;;;;;2.28;1.60;;;;;;;7.54;73.59;94184.22;4997887;28;20704;-67
2023/04/02 03:41:18;;;;;;;1.90;1.80;;;;;;;7.54;74.37;94187.56;4999373;28;20641;-70
2023/04/02 03:43:47;;;;;;;1.70;1.52;;;;;;;7.65;73.11;94187.22;4997074;28;20216;-71
2023/04/02 03:46:24;;;;;;;2.20;1.77;;;;;;;7.67;73.13;94190.50;4997066;28;20204;-69
2023/04/02 03:48:55;;;;;;;1.52;1.42;;;;;;;7.76;72.02;94187.63;4994675;28;20749;-69
2023/04/02 03:51:27;;;;;;;1.98;1.88;;;;;;;7.80;71.54;94190.00;4994119;28;20291;-69
2023/04/02 03:53:55;;;;;;;1.38;1.27;;;;;;;7.81;71.57;94183.22;4993732;28;20285;-69
2023/04/02 03:56:27;;;;;;;2.25;1.45;;;;;;;7.79;71.09;94182.47;4993357;28;20219;-67
2023/04/02 03:59:05;;;;;;;3.35;2.00;;;;;;;7.82;71.58;94183.16;4992746;28;20231;-66
2023/04/02 04:01:37;;;;;;;2.53;2.17;;;;;;;7.87;70.89;94188.06;4994161;28;20208;-70
2023/04/02 04:04:07;;;;;;;1.90;1.70;;;;;;;7.78;72.22;94188.41;4995020;28;20232;-69
2023/04/02 04:06:37;;;;;;;4.72;1.40;;;;;;;7.66;71.52;94174.50;4995117;28;20236;-72
2023/04/02 04:09:09;;;;;;;3.10;1.48;;;;;;;7.62;71.98;94190.66;4993962;28;20239;-69
2023/04/02 04:11:43;;;;;;;4.78;1.85;;;;;;;7.65;71.93;94193.09;4994139;28;20302;-68
2023/04/02 04:14:16;;;;;;;2.17;2.08;;;;;;;7.60;72.40;94199.19;4995686;28;20294;-70
2023/04/02 04:16:52;;;;;;;3.83;1.48;;;;;;;7.60;72.41;94200.00;4993872;28;20290;-71
2023/04/02 04:19:24;;;;;;;2.17;1.50;;;;;;;7.47;73.03;94204.66;4993936;28;20297;-68
2023/04/02 04:21:55;;;;;;;1.20;1.20;;;;;;;7.39;73.20;94204.13;4994900;28;20657;-66
2023/04/02 04:24:24;;;;;;;1.20;1.10;;;;;;;7.29;73.51;94200.25;4995631;28;20209;-69
2023/04/02 04:26:54;;;;;;;1.52;1.42;;;;;;;7.40;72.61;94220.94;4995524;28;20255;-71
2023/04/02 04:29:37;;;;;;;1.02;1.02;;;;;;;7.43;72.91;94219.97;4995177;28;20391;-70
2023/04/02 04:32:18;;;;;;;2.20;2.00;;;;;;;7.51;72.25;94216.31;4995112;28;20664;-67
2023/04/02 04:34:52;;;;;;;4.40;2.15;;;;;;;7.43;72.79;94223.34;4995633;28;20282;-69
2023/04/02 04:37:25;;;;;;;2.28;2.05;;;;;;;7.17;73.25;94203.22;4995427;28;20208;-68
2023/04/02 04:39:57;;;;;;;2.28;1.80;;;;;;;7.48;72.40;94221.47;4994168;28;20410;-68
2023/04/02 04:42:28;;;;;;;4.22;2.40;;;;;;;7.46;73.43;94210.59;4995561;28;20214;-69
2023/04/02 04:45:01;;;;;;;2.47;2.28;;;;;;;8.14;72.00;94219.94;4995793;28;20258;-72
2023/04/02 04:47:33;;;;;;;2.83;2.63;;;;;;;9.73;66.19;94213.47;4994646;28;20766;-69
2023/04/02 04:50:08;;;;;;;2.38;2.22;;;;;;;10.75;62.63;94214.72;4994316;28;20738;-66
2023/04/02 04:52:38;;;;;;;4.30;2.20;;;;;;;12.48;57.32;94209.28;4995627;28;20200;-68
2023/04/02 04:55:23;;;;;;;2.50;2.22;;;;;;;14.22;52.35;94220.44;4993509;28;20262;-67
2023/04/02 04:57:54;;;;;;;2.00;1.90;;;;;;;15.20;48.20;94210.00;4993819;28;20767;-69
2023/04/02 05:00:27;;;;;;;2.40;2.25;;;;;;;16.33;45.98;94209.16;4997822;28;20267;-72
2023/04/02 05:03:02;;;;;;;3.05;2.40;;;;;;;17.97;42.57;94211.00;4997894;28;20769;-67
2023/04/02 05:05:31;;;;;;;2.50;2.30;;;;;;;19.29;39.30;94208.28;4999134;28;20208;-70
2023/04/02 05:08:06;;;;;;;2.83;2.63;;;;;;;19.36;38.11;94204.25;4998270;28;20295;-71
2023/04/02 05:10:41;;;;;;;5.72;3.42;;;;;;;18.55;39.35;94212.47;4997751;28;20286;-70
2023/04/02 05:13:15;;;;;;;5.18;4.72;;;;;;;17.89;40.31;94216.69;4997626;28;20231;-71
2023/04/02 05:15:50;;;;;;;7.00;6.32;;;;;;;17.52;41.79;94218.63;4998029;28;20208;-66
2023/04/02 05:18:24;;;;;;;5.03;4.68;;;;;;;17.71;41.74;94225.81;4999196;28;20308;-72
2023/04/02 05:20:56;;;;;;;4.70;4.35;;;;;;;18.62;39.77;94225.69;4997601;28;20749;-66
2023/04/02 05:23:27;;;;;;;4.13;3.83;;;;;;;19.94;37.26;94219.28;4999624;28;20306;-70
2023/04/02 05:26:00;;;;;;;8.38;3.88;;;;;;;20.77;35.31;94218.25;4999458;28;20248;-69
2023/04/02 05:28:33;;;;;;;5.80;3.78;;;;;;;20.87;35.51;94214.72;4998418;28;20242;-69
2023/04/02 05:31:05;;;;;;;3.00;2.80;;;;;;;21.18;34.43;94223.19;4998975;28;20263;-66
2023/04/02 05:33:35;;;;;;;3.83;3.53;;;;;;;21.74;33.13;94227.69;4997727;28;20286;-68
2023/04/02 05:36:05;;;;;;;3.53;3.33;;;;;;;22.59;31.99;94231.91;4998164;28;20250;-68
2023/04/02 05:38:36;;;;;;;3.20;2.95;;;;;;;23.24;30.68;94227.47;4997663;28;20232;-67
2023/04/02 05:41:07;;;;;;;4.20;3.90;;;;;;;23.87;29.50;94211.75;4997234;28;20286;-69
2023/04/02 05:43:38;;;;;;;3.92;3.63;;;;;;;24.53;28.50;94218.94;4998243;28;20286;-69
2023/04/02 05:46:15;;;;;;;6.82;3.00;;;;;;;25.13;28.03;94224.03;4997393;28;20204;-69
2023/04/02 05:48:44;;;;;;;4.72;2.88;;;;;;;25.65;27.24;94227.22;4997313;28;20203;-69
2023/04/02 05:51:17;;;;;;;3.22;3.03;;;;;;;26.17;26.16;94235.47;4997022;28;20339;-69
2023/04/02 05:53:51;;;;;;;4.03;3.28;;;;;;;26.63;25.72;94233.06;4996900;28;20686;-71
2023/04/02 05:56:20;;;;;;;4.65;3.58;;;;;;;27.26;25.04;94232.13;4996599;28;20693;-72
2023/04/02 05:58:51;;;;;;;4.40;4.00;;;;;;;27.60;24.78;94224.75;4997873;28;20260;-73
2023/04/02 06:01:26;;;;;;;3.83;3.10;;;;;;;28.09;23.67;94230.34;4996449;28;20196;-73
2023/04/02 06:04:00;;;;;;;3.38;3.00;;;;;;;28.52;23.08;94222.72;4997124;28;20215;-70
2023/04/02 06:06:42;;;;;;;3.20;3.00;;;;;;;29.13;22.72;94223.31;4995721;28;20309;-70
2023/04/02 06:09:15;;;;;;;3.78;3.28;;;;;;;29.78;21.81;94223.16;4997067;28;20726;-71
2023/04/02 06:11:46;;;;;;;4.05;3.53;;;;;;;30.20;21.52;94224.09;4995152;28;20704;-70
2023/04/02 06:14:15;;;;;;;3.53;2.88;;;;;;;30.74;20.89;94226.06;4997451;28;20278;-69
2023/04/02 06:16:44;;;;;;;3.50;3.30;;;;;;;31.99;20.20;94229.03;4996723;28;20267;-70
2023/04/02 06:19:18;;;;;;;4.15;3.75;;;;;;;33.13;19.03;94220.75;4996847;28;20343;-72
2023/04/02 06:21:48;;;;;;;3.72;3.03;;;;;;;33.98;18.36;94224.69;4997268;28;20294;-68
2023/04/02 06:24:19;;;;;;;2.28;2.17;;;;;;;34.61;18.19;94221.13;4997837;28;20301;-70
2023/04/02 06:26:53;;;;;;;3.15;1.70;;;;;;;34.47;17.92;94220.44;4997251;28;20661;-69
2023/04/02 06:29:27;;;;;;;2.67;2.33;;;;;;;34.63;17.84;94219.06;4996590;28;20227;-70
2023/04/02 06:31:56;;;;;;;2.10;1.65;;;;;;;34.64;17.41;94218.06;4996067;28;20301;-70
2023/04/02 06:34:25;;;;;;;4.72;1.70;;;;;;;34.79;17.95;94219.31;4996141;28;20203;-70
2023/04/02 06:36:57;;;;;;;1.48;1.38;;;;;;;35.06;17.34;94211.88;4997099;28;20788;-70
2023/04/02 06:39:27;;;;;;;2.78;1.20;;;;;;;36.34;16.53;94219.41;4997099;28;20741;-70
2023/04/02 06:42:04;;;;;;;1.42;1.17;;;;;;;37.27;15.79;94204.44;4995011;28;20347;-70
2023/04/02 06:44:35;;;;;;;2.67;2.17;;;;;;;38.69;14.92;94204.13;4996618;28;20347;-70
2023/04/02 06:47:07;;;;;;;2.00;1.33;;;;;;;39.85;13.81;94203.81;4996786;28;22515;-70
2023/04/02 06:49:38;;;;;;;1.60;1.38;;;;;;;40.39;13.41;94215.22;4996423;28;20198;-71
2023/04/02 06:52:13;;;;;;;2.42;1.75;;;;;;;40.94;13.18;94214.75;4997022;28;20271;-72
2023/04/02 06:54:41;;;;;;;2.55;1.60;;;;;;;41.09;12.81;94212.13;4995751;28;20653;-69
2023/04/02 06:57:12;;;;;;;3.30;2.97;;;;;;;40.84;13.62;94220.03;4995593;28;20757;-72
2023/04/02 06:59:39;;;;;;;2.97;2.10;;;;;;;41.07;13.04;94216.94;4995815;28;20252;-67
2023/04/02 07:02:22;;;;;;;3.47;1.80;;;;;;;41.38;12.80;94223.19;4996428;28;20287;-72
2023/04/02 07:04:49;;;;;;;1.95;1.52;;;;;;;41.76;12.47;94216.63;4994352;28;20239;-71
2023/04/02 07:07:16;;;;;;;3.28;2.28;;;;;;;41.21;12.52;94217.28;4994715;28;20750;-67
2023/04/02 07:09:44;;;;;;;1.80;1.70;;;;;;;41.54;12.42;94223.25;4995691;28;20687;-70
2023/04/02 07:12:12;;;;;;;3.60;2.17;;;;;;;41.61;12.31;94223.81;4997919;28;20219;-73
2023/04/02 07:14:38;;;;;;;2.10;1.75;;;;;;;41.80;12.03;94227.59;4994244;28;20345;-69
2023/04/02 07:17:05;;;;;;;3.58;1.60;;;;;;;41.45;12.26;94225.63;4994984;28;20236;-70
2023/04/02 07:19:32;;;;;;;1.63;1.40;;;;;;;41.47;12.18;94223.50;4995729;28;20232;-72
2023/04/02 07:21:59;;;;;;;3.30;1.10;;;;;;;42.05;12.00;94229.50;4995489;28;20573;-72
2023/04/02 07:24:25;;;;;;;1.08;1.02;;;;;;;41.55;11.40;94233.66;4995900;28;20212;-73
2023/04/02 07:26:53;;;;;;;2.90;2.70;;;;;;;38.38;13.91;94246.13;4997054;28;20248;-72
2023/04/02 07:29:20;;;;;;;3.35;1.05;;;;;;;34.44;16.19;94239.34;4995600;28;20751;-71
2023/04/02 07:31:47;;;;;;;0.85;0.85;;;;;;;33.19;17.03;94245.41;4995849;28;20368;-73
2023/04/02 07:34:14;;;;;;;1.00;0.90;;;;;;;33.61;16.90;94249.28;4993997;28;20346;-70
2023/04/02 07:36:41;;;;;;;0.90;0.80;;;;;;;35.34;16.34;94250.97;4995518;28;20713;-72
2023/04/02 07:39:07;;;;;;;1.65;1.55;;;;;;;36.36;14.88;94235.88;4995840;28;20693;-73
2023/04/02 07:41:34;;;;;;;0.93;0.88;;;;;;;35.39;15.56;94242.38;4996649;28;20291;-73
2023/04/02 07:44:04;;;;;;;1.55;1.45;;;;;;;36.26;15.28;94253.34;4995027;28;20208;-67
2023/04/02 07:46:31;;;;;;;5.97;5.57;;;;;;;38.94;13.57;94249.59;4995371;28;20200;-69
2023/04/02 07:48:57;;;;;;;3.47;1.20;;;;;;;40.62;12.51;94244.13;4995222;28;20260;-70
2023/04/02 07:51:26;;;;;;;0.88;0.88;;;;;;;39.43;13.14;94242.50;4997217;28;20713;-72
2023/04/02 07:53:54;;;;;;;3.38;2.38;;;;;;;40.36;12.60;94247.66;4995890;28;20266;-73
2023/04/02 07:56:23;;;;;;;2.40;2.30;;;;;;;41.41;11.79;94237.88;4995929;28;20240;-71
2023/04/02 07:58:49;;;;;;;2.30;2.20;;;;;;;42.83;11.38;94237.97;4994631;28;20228;-71
2023/04/02 08:01:22;;;;;;;1.20;1.20;;;;;;;42.12;11.56;94256.72;4996226;28;20317;-71
2023/04/02 08:03:49;;;;;;;1.85;1.65;;;;;;;38.37;13.33;94241.06;4995364;28;20236;-72
2023/04/02 08:06:16;;;;;;;5.22;4.82;;;;;;;37.70;13.64;94238.38;4994952;28;20721;-71
2023/04/02 08:08:43;;;;;;;1.75;1.65;;;;;;;37.75;13.73;94252.53;4995637;28;20271;-72
2023/04/02 08:11:10;;;;;;;2.67;1.10;;;;;;;38.86;13.28;94246.56;4995529;28;20697;-73
2023/04/02 08:13:37;;;;;;;6.32;5.90;;;;;;;37.64;13.90;94244.59;4994863;28;20299;-73
2023/04/02 08:16:05;;;;;;;5.35;4.90;;;;;;;36.10;15.32;94249.50;4996848;28;20232;-72
2023/04/02 08:18:33;;;;;;;3.35;3.05;;;;;;;37.07;14.64;94258.59;4996778;28;20318;-69
2023/04/02 08:21:00;;;;;;;1.10;1.00;;;;;;;36.11;15.17;94253.75;4995384;28;20255;-71
2023/04/02 08:23:28;;;;;;;1.10;1.00;;;;;;;35.81;15.70;94253.00;4996176;28;20303;-72
2023/04/02 08:25:55;;;;;;;4.07;3.53;;;;;;;36.82;14.48;94252.78;4995302;28;20236;-70
2023/04/02 08:28:22;;;;;;;4.20;3.95;;;;;;;33.41;17.01;94255.44;4994769;28;20322;-72
2023/04/02 08:30:49;;;;;;;7.68;7.07;;;;;;;30.90;19.33;94262.47;4997859;28;20224;-73
2023/04/02 08:33:16;;;;;;;1.70;1.65;;;;;;;30.45;19.29;94274.28;4996148;28;20686;-69
2023/04/02 08:35:45;;;;;;;1.30;1.30;;;;;;;28.93;21.29;94264.13;4999323;28;20209;-72
2023/04/02 08:38:14;;;;;;;0.93;0.88;;;;;;;31.57;19.41;94264.34;4999113;28;20376;-69
2023/04/02 08:40:44;;;;;;;0.60;0.60;;;;;;;33.30;17.30;94260.59;4999095;28;20227;-72
2023/04/02 08:43:27;;;;;;;2.80;0.75;;;;;;;32.25;18.22;94262.44;4999132;28;20459;-73
2023/04/02 08:46:04;;;;;;;1.75;1.00;;;;;;;34.42;16.68;94265.94;4998013;28;20575;-72
2023/04/02 08:48:33;;;;;;;3.47;3.28;;;;;;;36.74;15.14;94269.00;4998426;28;20383;-67
2023/04/02 08:51:03;;;;;;;1.08;1.08;;;;;;;38.08;14.14;94266.88;4999430;28;20278;-69
2023/04/02 08:53:34;;;;;;;1.13;1.02;;;;;;;38.15;14.09;94266.72;4998176;28;20224;-66
2023/04/02 08:56:07;;;;;;;1.92;0.90;;;;;;;34.71;16.41;94261.81;5000301;28;20240;-69
2023/04/02 08:58:41;;;;;;;1.67;0.90;;;;;;;32.91;18.26;94258.91;4998675;28;20212;-72
2023/04/02 09:01:19;;;;;;;1.10;1.00;;;;;;;33.69;17.28;94263.00;4998878;28;20269;-68
2023/04/02 09:03:48;;;;;;;0.85;0.85;;;;;;;31.14;18.90;94255.94;4998302;28;20200;-72
2023/04/02 09:06:19;;;;;;;0.50;0.50;;;;;;;28.95;20.87;94267.38;4997935;28;20328;-68
2023/04/02 09:08:48;;;;;;;0.70;0.70;;;;;;;26.58;23.49;94274.44;4998249;28;20258;-72
2023/04/02 09:11:23;;;;;;;0.60;0.60;;;;;;;25.58;24.44;94276.44;4998133;28;20839;-73
2023/04/02 09:13:55;;;;;;;1.00;1.00;;;;;;;25.52;24.83;94278.88;4998085;28;20240;-67
2023/04/02 09:16:37;;;;;;;1.13;1.13;;;;;;;25.05;25.16;94266.41;4998286;28;20226;-72
2023/04/02 09:19:14;;;;;;;1.60;1.52;;;;;;;23.45;27.16;94279.81;4997633;28;20704;-71
2023/04/02 09:21:46;;;;;;;1.20;1.10;;;;;;;22.93;28.01;94277.03;4998179;28;20234;-70
2023/04/02 09:24:13;;;;;;;2.25;0.98;;;;;;;22.92;28.02;94272.00;4997405;28;20738;-70
2023/04/02 09:26:39;;;;;;;0.80;0.80;;;;;;;22.47;28.87;94280.47;4999107;28;20661;-72
2023/04/02 09:29:26;;;;;;;0.65;0.65;;;;;;;21.79;29.88;94278.97;4997369;28;20216;-70
2023/04/02 09:32:01;;;;;;;0.75;0.75;;;;;;;21.06;31.28;94281.91;4998416;28;20659;-73
2023/04/02 09:34:30;;;;;;;0.98;0.98;;;;;;;20.41;32.23;94260.94;4998510;28;20234;-70
2023/04/02 09:37:07;;;;;;;1.25;0.70;;;;;;;20.44;32.25;94276.16;4998169;28;20207;-70
2023/04/02 09:39:35;;;;;;;1.10;1.10;;;;;;;20.77;31.91;94277.66;4998661;28;20268;-72
2023/04/02 09:42:06;;;;;;;0.98;0.98;;;;;;;21.13;31.19;94278.78;4995991;28;20667;-73
2023/04/02 09:44:33;;;;;;;0.95;0.95;;;;;;;21.36;31.52;94277.63;4999072;28;20211;-70
2023/04/02 09:47:03;;;;;;;1.20;1.20;;;;;;;21.22;31.47;94270.28;4997812;28;20299;-71
2023/04/02 09:49:32;;;;;;;1.00;1.00;;;;;;;21.03;31.51;94263.31;4996871;28;20215;-72
2023/04/02 09:52:19;;;;;;;1.40;1.40;;;;;;;20.46;31.67;94259.59;4997521;28;21526;-72
2023/04/02 09:54:47;;;;;;;2.83;1.08;;;;;;;20.25;31.69;94259.63;4998031;28;20204;-71
2023/04/02 09:57:22;;;;;;;8.75;6.07;;;;;;;20.17;31.92;94248.31;4996930;28;20211;-73
2023/04/02 10:00:12;;;;;;;22.13;16.17;;;;;;;20.54;33.38;94253.81;4997445;28;20713;-66
2023/04/02 10:02:40;;;;;;;2.00;1.90;;;;;;;21.13;31.13;94245.22;4995741;28;20688;-70
2023/04/02 10:05:18;;;;;;;2.53;1.95;;;;;;;21.50;30.07;94253.97;4993715;28;20212;-69
2023/04/02 10:07:48;;;;;;;1.25;1.20;;;;;;;21.61;30.17;94251.22;4996049;28;20215;-71
2023/04/02 10:10:20;;;;;;;0.80;0.80;;;;;;;21.28;30.19;94247.28;4994884;28;20204;-71
2023/04/02 10:12:55;;;;;;;1.00;1.00;;;;;;;20.87;30.99;94245.72;4996556;28;20215;-71
2023/04/02 10:15:30;;;;;;;2.63;1.00;;;;;;;20.37;32.35;94237.97;4999512;28;20227;-72
2023/04/02 10:18:06;;;;;;;5.30;1.55;;;;;;;20.27;32.88;94242.25;4996972;28;20261;-72
2023/04/02 10:20:36;;;;;;;1.30;1.00;;;;;;;20.34;32.97;94243.34;4996062;28;20284;-69
2023/04/02 10:23:04;;;;;;;1.02;1.00;;;;;;;20.65;33.04;94249.34;4996650;28;20234;-68
2023/04/02 10:25:41;;;;;;;0.82;0.82;;;;;;;20.95;31.97;94238.13;4995333;28;20236;-71
2023/04/02 10:28:15;;;;;;;1.00;1.00;;;;;;;20.92;32.21;94238.38;4994493;28;20773;-71
2023/04/02 10:30:57;;;;;;;0.90;0.90;;;;;;;20.89;33.08;94240.41;4995779;28;20660;-68
2023/04/02 10:33:30;;;;;;;3.42;1.50;;;;;;;21.13;32.49;94240.03;4997423;28;20360;-70
2023/04/02 10:36:06;;;;;;;1.23;1.13;;;;;;;21.18;32.01;94238.69;4996653;28;20242;-69
2023/04/02 10:38:43;;;;;;;0.95;0.95;;;;;;;21.24;31.42;94237.38;4995926;28;20272;-72
2023/04/02 10:41:26;;;;;;;1.25;1.25;;;;;;;20.96;31.95;94239.75;4994803;28;20323;-73
2023/04/02 10:44:22;;;;;;;1.10;1.10;;;;;;;20.40;32.97;94243.81;4995943;28;20211;-69
2023/04/02 10:47:01;;;;;;;0.73;0.73;;;;;;;20.15;33.24;94238.13;4994915;28;20220;-71
2023/04/02 10:49:34;;;;;;;1.88;0.90;;;;;;;19.95;33.41;94223.50;4994935;28;20246;-73
2023/04/02 10:52:07;;;;;;;2.00;1.10;;;;;;;20.11;33.72;94230.75;4994154;28;20768;-72
2023/04/02 10:54:42;;;;;;;0.82;0.82;;;;;;;20.09;32.93;94233.47;4994966;28;20209;-72
2023/04/02 10:57:22;;;;;;;2.38;1.27;;;;;;;20.08;32.99;94228.44;4995000;28;20298;-69
2023/04/02 10:59:55;;;;;;;0.88;0.88;;;;;;;19.82;33.76;94225.44;4995972;28;20222;-70
2023/04/02 11:02:32;;;;;;;1.33;1.20;;;;;;;19.58;34.49;94223.94;4995663;28;20208;-71
2023/04/02 11:05:03;;;;;;;1.25;1.15;;;;;;;19.43;34.04;94217.47;4995397;28;21013;-72
2023/04/02 11:07:46;;;;;;;1.63;1.42;;;;;;;19.30;34.70;94229.72;4996400;28;20258;-70
2023/04/02 11:10:18;;;;;;;2.25;1.63;;;;;;;19.33;35.13;94222.53;4995375;28;20204;-74
2023/04/02 11:12:52;;;;;;;1.50;1.40;;;;;;;19.41;35.13;94221.91;4994654;28;20258;-72
2023/04/02 11:15:20;;;;;;;1.00;1.00;;;;;;;19.50;34.65;94226.38;4997046;28;20212;-73
2023/04/02 11:17:47;;;;;;;0.95;0.95;;;;;;;19.59;33.81;94229.94;4995062;28;20235;-72
2023/04/02 11:20:44;;;;;;;1.10;1.10;;;;;;;19.57;34.16;94227.47;4996436;28;20379;-71
2023/04/02 11:23:12;;;;;;;0.80;0.80;;;;;;;19.51;32.82;94227.19;4995470;28;20679;-73
2023/04/02 11:25:41;;;;;;;0.77;0.77;;;;;;;19.46;32.86;94224.94;4995237;28;20228;-67
2023/04/02 11:28:26;;;;;;;0.85;0.85;;;;;;;19.50;33.46;94225.50;4994484;28;20271;-71
2023/04/02 11:30:54;;;;;;;0.85;0.85;;;;;;;19.55;33.30;94213.91;4994228;28;20619;-68
2023/04/02 11:33:39;;;;;;;0.82;0.82;;;;;;;19.72;33.30;94224.59;4995506;28;20301;-69
2023/04/02 11:36:47;;;;;;;0.80;0.80;;;;;;;19.92;33.02;94221.19;4994105;28;20208;-70
2023/04/02 11:39:54;;;;;;;0.95;0.95;;;;;;;19.88;32.76;94214.63;4993630;28;20322;-69
2023/04/02 11:42:29;;;;;;;0.93;0.90;;;;;;;19.63;32.80;94206.34;4990636;28;20589;-69
2023/04/02 11:45:00;;;;;;;0.90;0.90;;;;;;;19.52;33.05;94201.28;4993810;28;20231;-66
2023/04/02 11:47:28;;;;;;;0.90;0.90;;;;;;;19.54;33.29;94214.03;4992181;28;20291;-67
2023/04/02 11:50:06;;;;;;;1.10;1.10;;;;;;;19.51;33.15;94204.81;4994107;28;20210;-71
2023/04/02 11:52:37;;;;;;;2.75;1.00;;;;;;;19.52;33.83;94206.44;4993772;28;20722;-72
2023/04/02 11:55:23;;;;;;;1.40;1.13;;;;;;;19.40;33.27;94199.66;4995017;28;21921;-72
2023/04/02 11:58:22;;;;;;;0.82;0.82;;;;;;;19.15;33.12;94192.28;4994223;28;20694;-70
2023/04/02 12:01:23;;;;;;;2.03;0.80;;;;;;;18.90;33.70;94198.59;4995226;28;20692;-70
2023/04/02 12:04:08;;;;;;;1.20;1.10;;;;;;;19.10;34.76;94213.25;4989938;28;20267;-71